createdAt,value
2022-10-24T00:03:39.077Z,13.90
2022-10-24T00:08:43.027Z,13.90
2022-10-24T00:13:45.517Z,13.90
2022-10-24T00:18:48.320Z,13.90
2022-10-24T00:23:50.411Z,13.80
2022-10-24T00:28:52.739Z,13.80
2022-10-24T00:33:56.772Z,13.70
2022-10-24T00:38:58.957Z,13.70
2022-10-24T00:44:13.128Z,13.70
2022-10-24T00:49:21.293Z,13.70
2022-10-24T00:54:23.844Z,13.70
2022-10-24T00:59:27.641Z,13.80
2022-10-24T01:04:30.914Z,13.70
2022-10-24T01:10:11.509Z,13.70
2022-10-24T01:15:25.566Z,13.70
2022-10-24T01:20:46.796Z,13.60
2022-10-24T01:25:51.631Z,13.60
2022-10-24T01:31:08.412Z,13.50
2022-10-24T01:36:17.080Z,13.50
2022-10-24T01:41:26.283Z,13.50
2022-10-24T01:47:07.939Z,13.40
2022-10-24T01:57:26.513Z,13.40
2022-10-24T02:02:37.278Z,13.40
2022-10-24T02:07:42.726Z,13.30
2022-10-24T02:12:49.928Z,13.20
2022-10-24T02:17:54.410Z,13.20
2022-10-24T02:23:32.351Z,13.20
2022-10-24T02:28:43.612Z,13.20
2022-10-24T02:33:48.223Z,13.20
2022-10-24T02:38:52.341Z,13.10
2022-10-24T02:43:55.666Z,13.10
2022-10-24T02:49:02.915Z,13.00
2022-10-24T02:54:05.682Z,13.00
2022-10-24T02:59:10.738Z,13.00
2022-10-24T03:04:12.845Z,12.90
2022-10-24T03:09:14.949Z,12.90
2022-10-24T03:14:17.190Z,12.90
2022-10-24T03:19:19.594Z,13.00
2022-10-24T03:24:31.179Z,12.90
2022-10-24T03:29:43.847Z,12.90
2022-10-24T03:34:46.004Z,12.90
2022-10-24T03:39:48.154Z,12.90
2022-10-24T03:44:50.287Z,12.80
2022-10-24T03:49:52.448Z,12.80
2022-10-24T03:54:54.611Z,12.80
2022-10-24T03:59:56.741Z,12.80
2022-10-24T04:04:58.845Z,12.80
2022-10-24T04:10:00.940Z,12.80
2022-10-24T04:15:04.991Z,12.80
2022-10-24T04:20:07.866Z,12.90
2022-10-24T04:25:10.194Z,12.90
2022-10-24T04:30:16.479Z,12.90
2022-10-24T04:35:18.947Z,12.90
2022-10-24T04:40:21.144Z,12.90
2022-10-24T04:45:23.301Z,12.90
2022-10-24T04:50:25.422Z,13.00
2022-10-24T04:55:28.329Z,13.00
2022-10-24T05:00:30.486Z,13.10
2022-10-24T05:05:32.652Z,13.20
2022-10-24T05:10:34.851Z,13.30
2022-10-24T05:15:37.220Z,13.30
2022-10-24T05:25:46.395Z,13.40
2022-10-24T05:30:48.799Z,13.30
2022-10-24T05:35:52.033Z,13.30
2022-10-24T05:40:54.249Z,13.30
2022-10-24T05:45:56.578Z,13.30
2022-10-24T05:50:59.405Z,13.40
2022-10-24T05:56:01.567Z,13.40
2022-10-24T06:01:03.951Z,13.40
2022-10-24T06:06:07.750Z,13.50
2022-10-24T06:11:11.175Z,13.60
2022-10-24T06:16:13.402Z,13.70
2022-10-24T06:21:16.591Z,13.70
2022-10-24T06:26:21.648Z,13.70
2022-10-24T06:31:26.702Z,13.80
2022-10-24T06:36:30.779Z,13.90
2022-10-24T06:41:33.843Z,13.90
2022-10-24T06:46:36.024Z,14.00
2022-10-24T06:51:38.173Z,14.00
2022-10-24T06:56:40.258Z,14.00
2022-10-24T07:01:43.076Z,14.00
2022-10-24T07:06:45.359Z,14.00
2022-10-24T07:11:47.417Z,13.90
2022-10-24T07:16:49.481Z,13.90
2022-10-24T07:21:51.576Z,13.90
2022-10-24T07:26:53.836Z,13.90
2022-10-24T07:31:57.103Z,13.90
2022-10-24T07:36:59.261Z,14.00
2022-10-24T07:42:01.358Z,14.00
2022-10-24T07:47:06.897Z,14.00
2022-10-24T07:52:09.330Z,14.10
2022-10-24T07:57:11.500Z,14.10
2022-10-24T08:02:15.114Z,14.30
2022-10-24T08:07:17.252Z,14.30
2022-10-24T08:12:19.376Z,14.30
2022-10-24T08:17:23.447Z,14.40
2022-10-24T08:22:25.661Z,14.60
2022-10-24T08:27:28.204Z,14.80
2022-10-24T08:32:30.426Z,14.80
2022-10-24T08:37:35.078Z,14.70
2022-10-24T08:42:37.933Z,14.80
2022-10-24T08:47:44.853Z,14.80
2022-10-24T08:52:52.739Z,14.80
2022-10-24T08:57:59.366Z,14.80
2022-10-24T09:03:17.571Z,14.70
2022-10-24T09:08:52.206Z,14.90
2022-10-24T09:13:54.531Z,15.00
2022-10-24T09:18:58.073Z,14.90
2022-10-24T09:24:01.085Z,15.00
2022-10-24T09:29:03.658Z,15.00
2022-10-24T09:34:06.778Z,15.30
2022-10-24T09:39:26.040Z,15.60
2022-10-24T09:44:34.880Z,15.70
2022-10-24T09:49:41.282Z,15.70
2022-10-24T09:54:44.843Z,15.50
2022-10-24T09:59:49.807Z,15.40
2022-10-24T10:05:04.355Z,15.30
2022-10-24T10:10:30.827Z,15.30
2022-10-24T10:15:56.043Z,15.40
2022-10-24T10:21:16.359Z,15.40
2022-10-24T10:26:23.253Z,15.50
2022-10-24T10:31:46.851Z,15.60
2022-10-24T10:37:24.291Z,15.70
2022-10-24T10:43:02.669Z,15.60
2022-10-24T10:48:15.714Z,15.80
2022-10-24T10:53:40.212Z,15.90
2022-10-24T10:59:08.058Z,16.20
2022-10-24T11:04:45.567Z,16.50
2022-10-24T11:09:54.222Z,16.80
2022-10-24T11:15:16.106Z,17.10
2022-10-24T11:20:30.137Z,17.10
2022-10-24T11:25:47.993Z,16.70
2022-10-24T11:30:56.817Z,16.90
2022-10-24T11:36:20.077Z,17.00
2022-10-24T11:41:39.861Z,17.10
2022-10-24T11:46:48.831Z,17.40
2022-10-24T11:51:57.464Z,17.80
2022-10-24T12:02:40.058Z,18.40
2022-10-24T12:07:51.541Z,18.10
2022-10-24T12:13:31.407Z,18.60
2022-10-24T12:18:36.038Z,18.30
2022-10-24T12:23:40.154Z,17.50
2022-10-24T12:28:43.655Z,17.30
2022-10-24T12:34:07.160Z,17.80
2022-10-24T12:39:09.782Z,17.80
2022-10-24T12:44:32.165Z,17.10
2022-10-24T12:49:34.352Z,16.70
2022-10-24T12:54:42.588Z,16.70
2022-10-24T12:59:59.159Z,17.30
2022-10-24T13:05:30.725Z,17.40
2022-10-24T13:10:56.780Z,17.30
2022-10-24T13:16:26.064Z,17.80
2022-10-24T13:21:46.670Z,18.20
2022-10-24T13:27:13.029Z,17.40
2022-10-24T13:32:18.655Z,17.00
2022-10-24T13:37:24.627Z,17.30
2022-10-24T13:42:28.912Z,17.50
2022-10-24T13:47:42.867Z,17.90
2022-10-24T13:52:49.637Z,17.70
2022-10-24T13:58:08.104Z,18.40
2022-10-24T14:03:22.867Z,18.60
2022-10-24T14:08:29.581Z,18.90
2022-10-24T14:13:34.650Z,18.40
2022-10-24T14:18:39.420Z,17.80
2022-10-24T14:23:42.036Z,18.20
2022-10-24T14:28:55.809Z,18.70
2022-10-24T14:33:59.394Z,18.60
2022-10-24T14:39:02.976Z,18.40
2022-10-24T14:44:07.261Z,18.70
2022-10-24T14:49:27.743Z,18.00
2022-10-24T14:54:32.846Z,17.20
2022-10-24T14:59:39.079Z,16.90
2022-10-24T15:04:47.584Z,16.80
2022-10-24T15:10:19.538Z,16.50
2022-10-24T15:15:34.127Z,16.10
2022-10-24T15:20:40.559Z,15.60
2022-10-24T15:25:43.227Z,15.30
2022-10-24T15:30:45.426Z,15.10
2022-10-24T15:35:47.589Z,15.10
2022-10-24T15:40:49.757Z,15.00
2022-10-24T15:45:51.960Z,15.00
2022-10-24T15:50:54.292Z,15.20
2022-10-24T15:55:56.545Z,15.20
2022-10-24T16:00:59.492Z,15.20
2022-10-24T16:06:04.456Z,15.20
2022-10-24T16:11:09.250Z,15.20
2022-10-24T16:16:12.423Z,15.10
2022-10-24T16:21:18.855Z,15.20
2022-10-24T16:26:21.152Z,15.20
2022-10-24T16:31:23.728Z,15.20
2022-10-24T16:36:26.607Z,15.10
2022-10-24T16:41:28.739Z,15.10
2022-10-24T16:46:31.059Z,15.00
2022-10-24T16:51:33.297Z,15.00
2022-10-24T16:56:35.389Z,14.90
2022-10-24T17:01:37.654Z,14.90
2022-10-24T17:06:39.915Z,14.90
2022-10-24T17:11:46.465Z,14.90
2022-10-24T17:16:48.878Z,14.90
2022-10-24T17:21:51.835Z,14.80
2022-10-24T17:26:54.065Z,14.80
2022-10-24T17:31:56.556Z,14.80
2022-10-24T17:37:21.900Z,14.70
2022-10-24T17:42:24.340Z,14.60
2022-10-24T17:47:27.062Z,14.50
2022-10-24T17:52:29.239Z,14.50
2022-10-24T17:57:31.293Z,14.40
2022-10-24T18:02:34.268Z,14.30
2022-10-24T18:07:36.860Z,14.30
2022-10-24T18:12:41.196Z,14.30
2022-10-24T18:17:44.466Z,14.20
2022-10-24T18:22:46.941Z,14.20
2022-10-24T18:27:49.638Z,14.20
2022-10-24T18:32:51.725Z,14.10
2022-10-24T18:37:54.022Z,14.10
2022-10-24T18:43:04.256Z,14.00
2022-10-24T18:48:07.399Z,14.00
2022-10-24T18:53:22.589Z,13.90
2022-10-24T18:58:24.963Z,13.90
2022-10-24T19:03:37.151Z,13.90
2022-10-24T19:08:39.420Z,13.80
2022-10-24T19:13:42.884Z,13.80
2022-10-24T19:18:53.094Z,13.80
2022-10-24T19:23:56.199Z,13.80
2022-10-24T19:29:01.065Z,13.80
2022-10-24T19:34:19.704Z,13.70
2022-10-24T19:39:21.683Z,13.70
2022-10-24T19:44:24.815Z,13.70
2022-10-24T19:49:26.889Z,13.70
2022-10-24T19:54:28.937Z,13.70
2022-10-24T19:59:36.519Z,13.70
2022-10-24T20:10:00.009Z,13.60
2022-10-24T20:15:02.058Z,13.60
2022-10-24T20:20:05.131Z,13.50
2022-10-24T20:25:07.512Z,13.50
2022-10-24T20:30:10.331Z,13.40
2022-10-24T20:35:12.468Z,13.40
2022-10-24T20:40:14.705Z,13.40
2022-10-24T20:45:20.524Z,13.30
2022-10-24T20:50:24.971Z,13.30
2022-10-24T20:55:39.367Z,13.30
2022-10-24T21:00:45.507Z,13.30
2022-10-24T21:05:47.575Z,13.30
2022-10-24T21:10:49.718Z,13.30
2022-10-24T21:15:56.678Z,13.20
2022-10-24T21:20:58.795Z,13.10
2022-10-24T21:26:02.472Z,13.10
2022-10-24T21:31:10.712Z,13.00
2022-10-24T21:36:15.321Z,12.90
2022-10-24T21:41:18.755Z,12.90
2022-10-24T21:46:23.764Z,12.90
2022-10-24T21:51:34.654Z,12.90
2022-10-24T21:56:37.423Z,12.90
2022-10-24T22:01:40.127Z,12.90
2022-10-24T22:06:43.160Z,12.90
2022-10-24T22:11:45.782Z,12.90
2022-10-24T22:16:47.958Z,12.90
2022-10-24T22:21:50.692Z,12.90
2022-10-24T22:26:53.123Z,12.90
2022-10-24T22:31:55.625Z,12.90
2022-10-24T22:37:23.453Z,13.00
2022-10-24T22:42:25.687Z,13.00
2022-10-24T22:47:58.305Z,13.00
2022-10-24T22:53:00.699Z,13.00
2022-10-24T22:58:03.257Z,13.10
2022-10-24T23:03:39.141Z,13.10
2022-10-24T23:08:43.976Z,13.10
2022-10-24T23:13:46.408Z,13.10
2022-10-24T23:18:49.078Z,13.10
2022-10-24T23:23:51.374Z,13.00
2022-10-24T23:29:19.718Z,13.10
2022-10-24T23:34:22.329Z,13.10
2022-10-24T23:39:25.204Z,13.10
2022-10-24T23:44:27.938Z,13.10
2022-10-24T23:49:47.707Z,13.00
2022-10-24T23:54:50.475Z,12.90
2022-10-24T23:59:52.623Z,12.90
